createdAt,value
2022-08-31T00:21:16.246Z,98060.2898300111
2022-08-31T00:24:16.473Z,98058.41501750318
2022-08-31T00:27:16.993Z,98053.83620525354
2022-08-31T00:31:17.124Z,98056.19798948872
2022-08-31T00:34:16.888Z,98050.42188922386
2022-08-31T00:37:16.840Z,98051.48564524621
2022-08-31T00:41:18.236Z,98055.76774392024
2022-08-31T00:44:16.758Z,98059.9971282018
2022-08-31T00:47:16.834Z,98067.87955872163
2022-08-31T00:51:18.710Z,98068.47200784406
2022-08-31T00:54:19.697Z,98065.00722644966
2022-08-31T00:57:17.010Z,98066.19563708258
2022-08-31T01:01:16.338Z,98065.18445053668
2022-08-31T01:04:16.684Z,98067.61887243303
2022-08-31T01:07:16.752Z,98065.30382220056
2022-08-31T01:11:19.398Z,98064.66560477145
2022-08-31T01:14:17.427Z,98061.76796010137
2022-08-31T01:17:19.630Z,98066.90803885582
2022-08-31T01:21:25.306Z,98071.09205216439
2022-08-31T01:24:19.171Z,98077.00721281533
2022-08-31T01:27:22.535Z,98083.08294262321
2022-08-31T01:31:22.740Z,98074.76099699958
2022-08-31T01:34:16.795Z,98073.48201250253
2022-08-31T01:37:17.067Z,98067.37003915996
2022-08-31T01:41:16.733Z,98061.1349253835
2022-08-31T01:44:20.843Z,98062.20171358487
2022-08-31T01:47:16.945Z,98057.08495835584
2022-08-31T01:51:18.777Z,98058.07585945353
2022-08-31T01:54:17.674Z,98058.67870965027
2022-08-31T02:01:39.269Z,98046.30632637949
2022-08-31T02:04:36.552Z,98046.48878241431
2022-08-31T02:07:36.406Z,98048.10144097394
2022-08-31T02:11:57.661Z,98046.82306239514
2022-08-31T02:31:31.211Z,98025.91450906741
2022-08-31T02:51:46.791Z,98018.54983928463
2022-08-31T03:31:36.558Z,98009.04654676322
2022-08-31T03:34:36.592Z,98003.80007844104
2022-08-31T03:37:36.312Z,98004.73865467466
2022-08-31T03:41:31.125Z,98004.47185656098
2022-08-31T04:11:25.493Z,98004.2045035654
2022-08-31T04:14:16.556Z,98007.11857207275
2022-08-31T04:21:19.068Z,98014.97078406843
2022-08-31T04:24:17.225Z,98014.29968118467
2022-08-31T04:27:17.097Z,98014.20913862044
2022-08-31T05:01:22.456Z,98016.68668647342
2022-08-31T05:04:16.886Z,98016.79558058063
2022-08-31T05:07:16.846Z,98013.49294351545
2022-08-31T05:11:22.974Z,98013.18039918368
2022-08-31T05:14:17.539Z,98013.97678397503
2022-08-31T05:17:17.274Z,98012.0401372409
2022-08-31T05:21:18.575Z,98010.65388583201
2022-08-31T05:24:20.266Z,98011.56278084214
2022-08-31T05:27:16.559Z,98008.21055471104
2022-08-31T05:31:16.929Z,98005.82362393432
2022-08-31T05:34:19.404Z,98005.29163515949
2022-08-31T05:37:16.910Z,98012.47259730632
2022-08-31T05:41:16.276Z,98015.6061985912
2022-08-31T05:44:17.919Z,98013.93490043437
2022-08-31T06:11:22.314Z,98018.6657458374
2022-08-31T06:14:17.049Z,98018.00244454716
2022-08-31T06:17:17.800Z,98021.28716998392
2022-08-31T06:21:18.904Z,98017.03563076409
2022-08-31T06:24:18.229Z,98012.0945656019
2022-08-31T06:27:18.683Z,98011.99995616822
2022-08-31T06:31:19.302Z,98004.02818705255
2022-08-31T06:34:18.859Z,98001.59325349734
2022-08-31T06:37:19.034Z,98004.13238540622
2022-08-31T06:41:18.436Z,98007.0431260411
2022-08-31T06:44:16.537Z,98006.90694195968
2022-08-31T06:47:19.686Z,98004.97514396241
2022-08-31T06:51:16.702Z,98004.24606292821
2022-08-31T06:54:29.525Z,98001.76433048736
2022-08-31T07:11:18.960Z,98015.19647290732
2022-08-31T07:14:19.412Z,98015.80056566319
2022-08-31T07:17:16.421Z,98011.26196336081
2022-08-31T07:21:18.735Z,98013.83292831088
2022-08-31T07:24:19.136Z,98012.75896875655
2022-08-31T07:27:17.306Z,98015.96442601139
2022-08-31T07:31:19.231Z,98016.89427951693
2022-08-31T07:34:20.296Z,98016.34792447579
2022-08-31T07:42:24.336Z,98015.32644397419
2022-08-31T07:44:18.852Z,98008.67829658111
2022-08-31T07:47:20.697Z,98004.03995723405
2022-08-31T07:51:23.887Z,98006.10330146679
2022-08-31T07:54:22.824Z,98004.49855871948
2022-08-31T07:57:20.486Z,98016.24253391172
2022-08-31T08:01:16.957Z,98019.83098537708
2022-08-31T08:04:25.647Z,98024.04269928206
2022-08-31T08:11:17.587Z,98016.36828298902
2022-08-31T08:14:17.304Z,98029.33307665565
2022-08-31T08:17:16.991Z,98022.68210081475
2022-08-31T08:21:16.326Z,98031.37114037816
2022-08-31T08:24:17.255Z,98033.1850378591
2022-08-31T08:27:17.301Z,98032.15289521452
2022-08-31T08:31:18.487Z,98042.60070732857
2022-08-31T08:34:16.567Z,98039.52220290629
2022-08-31T08:37:16.605Z,98036.28672384343
2022-08-31T08:41:20.775Z,98039.43044715581
2022-08-31T08:44:18.111Z,98043.80337574348
2022-08-31T08:47:23.955Z,98038.216162438
2022-08-31T08:51:20.122Z,98037.09803093344
2022-08-31T08:54:27.474Z,98037.33482165071
2022-08-31T08:57:21.563Z,98044.12873675325
2022-08-31T09:01:25.522Z,98052.4042960208
2022-08-31T09:04:35.845Z,98050.81603732836
2022-08-31T09:07:35.408Z,98045.16320041868
2022-08-31T09:11:25.506Z,98043.57540541617
2022-08-31T09:14:33.526Z,98039.8155336858
2022-08-31T09:21:24.126Z,98031.11724939421
2022-08-31T09:24:19.628Z,98027.7533952187
2022-08-31T09:31:30.250Z,98017.88159304629
2022-08-31T09:34:31.070Z,98014.69277409742
2022-08-31T09:37:21.155Z,98014.33439706895
2022-08-31T09:41:29.485Z,98012.5790188338
2022-08-31T09:44:25.422Z,98007.3982924811
2022-08-31T09:47:41.115Z,98007.33934062786
2022-08-31T09:51:23.235Z,98003.41708023252
2022-08-31T09:55:24.878Z,97996.39089701837
2022-08-31T09:57:18.437Z,97994.3576654419
2022-08-31T10:01:23.850Z,97995.55517619567
2022-08-31T10:04:20.983Z,97992.4512997865
2022-08-31T10:07:29.164Z,97990.92470018395
2022-08-31T10:11:19.668Z,97994.39805599423
2022-08-31T10:14:26.953Z,97988.42491452965
2022-08-31T10:17:21.046Z,97993.71062102061
2022-08-31T10:21:21.676Z,97974.63646706045
2022-08-31T10:24:30.503Z,97969.82705197408
2022-08-31T10:27:23.088Z,97969.06056485954
2022-08-31T10:31:54.179Z,97956.79965339659
2022-08-31T10:36:16.556Z,97958.83627956717
2022-08-31T10:41:21.756Z,97949.09284552105
2022-08-31T10:44:33.142Z,97941.08928732094
2022-08-31T10:47:22.795Z,97931.3725884108
2022-08-31T10:51:30.181Z,97939.47385289961
2022-08-31T10:54:34.967Z,97933.06885468357
2022-08-31T10:57:31.413Z,97938.20626723107
2022-08-31T11:01:20.881Z,97933.36782334783
2022-08-31T11:04:41.916Z,97934.59790570757
2022-08-31T11:07:26.237Z,97929.72328584704
2022-08-31T11:11:26.662Z,97921.99474407377
2022-08-31T11:14:39.105Z,97931.07267757982
2022-08-31T11:17:33.720Z,97930.27647145648
2022-08-31T11:31:27.843Z,97923.10432789322
2022-08-31T11:34:25.619Z,97917.73664322197
2022-08-31T11:37:51.645Z,97905.75809670104
2022-08-31T11:41:35.244Z,97907.43791411798
2022-08-31T11:51:26.201Z,97916.58075556044
2022-08-31T11:55:46.988Z,97917.44704188743
2022-08-31T11:57:18.431Z,97915.76278925443
2022-08-31T12:01:32.793Z,97914.30635656054
2022-08-31T12:05:42.005Z,97904.85206575955
2022-08-31T12:07:18.036Z,97890.63762740142
2022-08-31T12:11:30.864Z,97884.62390982424
2022-08-31T12:31:18.292Z,97884.43965460599
2022-08-31T12:34:19.534Z,97879.95298132878
2022-08-31T12:37:20.715Z,97879.11929584897
2022-08-31T12:41:16.225Z,97871.41878581303
2022-08-31T12:44:20.245Z,97867.61265782503
2022-08-31T12:47:25.063Z,97863.86315250742
2022-08-31T12:51:32.319Z,97867.93784593372
2022-08-31T13:01:21.165Z,97854.2155557735
2022-08-31T13:04:19.224Z,97855.46616977607
2022-08-31T13:07:21.861Z,97849.41443785041
2022-08-31T13:11:24.540Z,97848.87961696734
2022-08-31T13:14:21.096Z,97857.71363746378
2022-08-31T13:17:19.046Z,97855.98041203496
2022-08-31T13:21:19.888Z,97848.05891665322
2022-08-31T13:24:23.022Z,97844.56571228067
2022-08-31T13:27:19.459Z,97847.76019560553
2022-08-31T13:31:20.730Z,97846.68656149236
2022-08-31T13:34:17.309Z,97845.81749304527
2022-08-31T13:37:22.845Z,97841.15510192125
2022-08-31T13:41:24.646Z,97833.64043792746
2022-08-31T13:44:23.391Z,97829.04115105662
2022-08-31T13:47:21.520Z,97831.82046503742
2022-08-31T13:51:18.993Z,97838.94476639426
2022-08-31T13:54:25.779Z,97840.96977204601
2022-08-31T13:57:19.836Z,97839.14841007264
2022-08-31T14:01:23.219Z,97838.24686950723
2022-08-31T14:04:36.549Z,97837.40769352358
2022-08-31T14:07:23.300Z,97836.35227705099
2022-08-31T14:11:16.307Z,97839.72859023615
2022-08-31T14:14:20.491Z,97840.61630974928
2022-08-31T14:17:16.668Z,97839.67553220953
2022-08-31T14:21:21.834Z,97841.85972112272
2022-08-31T14:24:16.660Z,97841.83340740205
2022-08-31T14:27:17.398Z,97838.4751130914
2022-08-31T14:31:25.247Z,97837.85584297305
2022-08-31T14:34:25.414Z,97842.74086995237
2022-08-31T14:37:20.111Z,97845.77845322377
2022-08-31T14:41:17.907Z,97838.07605063042
2022-08-31T14:44:20.857Z,97840.65861504433
2022-08-31T14:47:16.752Z,97836.96922760895
2022-08-31T14:51:16.071Z,97839.08713299893
2022-08-31T14:54:17.179Z,97850.72877009046
2022-08-31T14:57:20.773Z,97847.04512693014
2022-08-31T15:01:17.037Z,97855.51812535367
2022-08-31T15:04:18.419Z,97865.12447262525
2022-08-31T15:07:18.429Z,97859.32569673494
2022-08-31T15:11:16.243Z,97859.57711998974
2022-08-31T15:14:17.209Z,97852.31107839911
2022-08-31T15:17:19.950Z,97847.54574726358
2022-08-31T15:21:15.926Z,97832.02180369591
2022-08-31T15:31:23.767Z,97827.82365239334
2022-08-31T15:34:22.168Z,97818.03129931356
2022-08-31T15:37:16.824Z,97830.0867782885
2022-08-31T15:41:17.042Z,97830.53353034341
2022-08-31T15:44:17.778Z,97828.21663127617
2022-08-31T15:51:21.683Z,97821.14123206762
2022-08-31T15:54:22.183Z,97827.64503153307
2022-08-31T15:57:16.867Z,97822.48262434686
2022-08-31T16:01:16.646Z,97825.64454394348
2022-08-31T16:04:20.268Z,97828.02711741104
2022-08-31T16:07:17.135Z,97830.09755258469
2022-08-31T16:11:16.016Z,97835.38162446061
2022-08-31T16:14:17.637Z,97831.83932107956
2022-08-31T16:17:19.226Z,97831.9799213346
2022-08-31T16:21:20.727Z,97834.50220905998
2022-08-31T16:24:20.931Z,97837.58467370027
2022-08-31T16:27:18.170Z,97840.15362725857
2022-08-31T16:31:16.843Z,97833.5398647298
2022-08-31T16:34:17.644Z,97837.88618364344
2022-08-31T16:37:16.757Z,97835.53524175807
2022-08-31T16:41:17.518Z,97837.54825121607
2022-08-31T16:44:19.937Z,97838.47734748997
2022-08-31T16:47:18.462Z,97842.57054435324
2022-08-31T16:51:20.044Z,97833.36981626601
2022-08-31T16:54:18.297Z,97833.02001630972
2022-08-31T16:57:19.367Z,97829.38924987036
2022-08-31T17:01:20.509Z,97816.26723273406
2022-08-31T17:04:41.120Z,97819.41388071318
2022-08-31T17:07:18.547Z,97819.3815327973
2022-08-31T17:11:20.404Z,97812.25902653023
2022-08-31T17:14:19.574Z,97812.32748421773
2022-08-31T17:17:20.372Z,97811.2318731633
2022-08-31T17:21:19.663Z,97816.39489167205
2022-08-31T17:24:20.339Z,97815.42700608351
2022-08-31T17:27:19.682Z,97810.74946357118
2022-08-31T17:31:16.393Z,97808.85577399615
2022-08-31T17:34:20.167Z,97810.98037162033
2022-08-31T17:37:20.741Z,97816.26726884342
2022-08-31T17:41:16.146Z,97816.12118704699
2022-08-31T17:44:18.502Z,97818.145432995
2022-08-31T17:47:17.030Z,97824.88756966163
2022-08-31T17:51:19.946Z,97824.05562870021
2022-08-31T17:54:19.207Z,97827.39332924559
2022-08-31T17:57:18.061Z,97830.33544774682
2022-08-31T18:01:24.196Z,97832.65218580776
2022-08-31T18:04:17.247Z,97833.46119397986
2022-08-31T18:07:16.678Z,97841.11495314464
2022-08-31T18:11:16.000Z,97842.00050560813
2022-08-31T18:14:17.890Z,97839.93482934502
2022-08-31T18:17:16.888Z,97841.23011054567
2022-08-31T18:21:20.615Z,97841.50932566222
2022-08-31T18:24:16.812Z,97845.33170612322
2022-08-31T18:27:17.343Z,97851.7743213561
2022-08-31T18:31:16.333Z,97846.65172151403
2022-08-31T18:34:21.852Z,97845.71042479544
2022-08-31T18:37:22.281Z,97846.94163436559
2022-08-31T18:51:19.658Z,97865.05768901741
2022-08-31T18:54:16.622Z,97861.54584835551
2022-08-31T18:57:19.686Z,97868.02188310739
2022-08-31T19:01:17.116Z,97867.75703151964
2022-08-31T19:04:21.598Z,97873.27635377798
2022-08-31T19:07:18.794Z,97876.981123537
2022-08-31T19:11:17.297Z,97874.77111619871
2022-08-31T19:14:17.751Z,97873.55962349783
2022-08-31T19:17:16.710Z,97878.57506112606
2022-08-31T19:21:20.130Z,97880.17976027189
2022-08-31T19:24:18.114Z,97874.77855683658
2022-08-31T19:27:16.182Z,97875.7422604017
2022-08-31T19:31:17.982Z,97874.64074649145
2022-08-31T19:34:20.456Z,97875.25593726308
2022-08-31T19:37:16.987Z,97879.58144306294
2022-08-31T19:41:19.126Z,97868.75275772078
2022-08-31T19:44:17.580Z,97860.2753624489
2022-08-31T19:47:24.761Z,97857.5251739127
2022-08-31T19:51:19.202Z,97850.91931390185
2022-08-31T19:54:19.016Z,97847.87331789495
2022-08-31T19:57:17.349Z,97845.55929362454
2022-08-31T20:01:18.782Z,97845.37725030343
2022-08-31T20:04:17.992Z,97846.24031445371
2022-08-31T20:07:17.050Z,97850.13007133303
2022-08-31T20:11:21.634Z,97838.05709576284
2022-08-31T20:14:18.168Z,97838.83315302672
2022-08-31T20:17:16.493Z,97837.73376426093
2022-08-31T20:21:22.564Z,97833.61132011176
2022-08-31T20:24:16.721Z,97827.51892970328
2022-08-31T20:27:18.721Z,97831.42625987707
2022-08-31T20:31:17.627Z,97827.02730893187
2022-08-31T20:34:19.021Z,97820.30055047723
2022-08-31T20:37:16.618Z,97823.50005010559
2022-08-31T20:41:16.648Z,97826.4832512194
2022-08-31T20:44:20.194Z,97832.84708027687
2022-08-31T20:51:20.339Z,97824.34655433406
2022-08-31T20:54:17.483Z,97826.3012322013
2022-08-31T20:57:18.509Z,97830.23635870822
2022-08-31T21:01:16.729Z,97831.53265730666
2022-08-31T21:04:18.234Z,97835.57569389642
2022-08-31T21:07:19.126Z,97828.52898079072
2022-08-31T21:11:18.710Z,97828.64754947386
2022-08-31T21:14:18.816Z,97830.16128369885
2022-08-31T21:17:16.612Z,97836.78935903861
2022-08-31T21:21:17.779Z,97832.3390361234
2022-08-31T21:24:19.758Z,97831.80181533408
2022-08-31T21:27:16.994Z,97827.6474637858
2022-08-31T21:41:18.269Z,97827.48391306569
2022-08-31T21:44:19.040Z,97825.22989868847
2022-08-31T21:47:16.197Z,97825.36803946129
2022-08-31T21:51:27.868Z,97816.35475252153
2022-08-31T22:01:19.487Z,97813.65552146132
2022-08-31T22:04:16.531Z,97813.98281958576
2022-08-31T22:07:16.053Z,97811.17629198254
2022-08-31T22:11:21.060Z,97809.67055568537
2022-08-31T22:14:19.093Z,97813.16916939015
2022-08-31T22:17:16.693Z,97809.95795160305
2022-08-31T22:21:20.198Z,97806.42260912505
2022-08-31T22:31:19.217Z,97804.36543994908
2022-08-31T22:31:21.764Z,97804.4878398133
2022-08-31T22:34:18.861Z,97806.86153901764
2022-08-31T22:37:16.497Z,97799.75686967147
2022-08-31T22:41:17.204Z,97796.84768870845
2022-08-31T22:44:18.856Z,97800.78590317865
2022-08-31T22:47:16.861Z,97794.36200073009
2022-08-31T22:51:16.822Z,97786.88074209583
2022-08-31T22:54:18.466Z,97788.9305514921
2022-08-31T22:57:16.893Z,97785.88145846705
2022-08-31T23:01:18.537Z,97790.76095212984
2022-08-31T23:04:23.130Z,97782.3769266938
2022-08-31T23:07:16.924Z,97773.60081997009
2022-08-31T23:11:20.034Z,97768.58674152811
2022-08-31T23:14:16.741Z,97766.82940065529
2022-08-31T23:17:17.246Z,97767.99434581216
2022-08-31T23:21:18.546Z,97762.44363629799
2022-08-31T23:24:19.990Z,97762.54825219707
2022-08-31T23:27:19.659Z,97757.76721930176
2022-08-31T23:31:15.654Z,97753.55022357294
2022-08-31T23:34:16.415Z,97749.49638222014
2022-08-31T23:37:18.492Z,97750.88502702235
2022-08-31T23:41:17.740Z,97749.77376917865
2022-08-31T23:44:16.454Z,97744.69741470736
2022-08-31T23:47:23.740Z,97742.07375150191
2022-08-31T23:51:16.706Z,97727.28008458555
2022-08-31T23:54:18.496Z,97723.53289820127
2022-08-31T23:57:31.399Z,97723.59746799729
